sensor_id;sensor_type;location;lat;lon;timestamp;temperature;humidity
80230;DHT22;69540;42.136;24.742;2023-04-22T00:01:22;22.30;33.00
80230;DHT22;69540;42.136;24.742;2023-04-22T00:03:49;22.30;33.00
80230;DHT22;69540;42.136;24.742;2023-04-22T00:06:16;22.30;33.10
80230;DHT22;69540;42.136;24.742;2023-04-22T00:08:42;22.30;33.00
80230;DHT22;69540;42.136;24.742;2023-04-22T00:11:08;22.20;33.10
80230;DHT22;69540;42.136;24.742;2023-04-22T00:13:34;22.30;33.00
80230;DHT22;69540;42.136;24.742;2023-04-22T00:16:04;22.30;33.00
80230;DHT22;69540;42.136;24.742;2023-04-22T00:18:32;22.30;33.00
80230;DHT22;69540;42.136;24.742;2023-04-22T00:20:58;22.30;33.10
80230;DHT22;69540;42.136;24.742;2023-04-22T00:23:23;22.30;33.10
80230;DHT22;69540;42.136;24.742;2023-04-22T00:25:50;22.30;33.10
80230;DHT22;69540;42.136;24.742;2023-04-22T00:28:15;22.20;33.00
80230;DHT22;69540;42.136;24.742;2023-04-22T00:30:41;22.30;33.10
80230;DHT22;69540;42.136;24.742;2023-04-22T00:33:07;22.30;33.00
80230;DHT22;69540;42.136;24.742;2023-04-22T00:35:32;22.30;33.10
80230;DHT22;69540;42.136;24.742;2023-04-22T00:37:58;22.30;33.10
80230;DHT22;69540;42.136;24.742;2023-04-22T00:40:24;22.30;33.10
80230;DHT22;69540;42.136;24.742;2023-04-22T00:42:50;22.20;33.10
80230;DHT22;69540;42.136;24.742;2023-04-22T00:45:16;22.30;33.10
80230;DHT22;69540;42.136;24.742;2023-04-22T00:47:47;22.30;33.10
80230;DHT22;69540;42.136;24.742;2023-04-22T00:50:14;22.20;33.00
80230;DHT22;69540;42.136;24.742;2023-04-22T00:52:40;22.20;33.10
80230;DHT22;69540;42.136;24.742;2023-04-22T00:55:06;22.20;33.10
80230;DHT22;69540;42.136;24.742;2023-04-22T00:57:33;22.20;33.10
80230;DHT22;69540;42.136;24.742;2023-04-22T01:00:00;22.30;33.10
80230;DHT22;69540;42.136;24.742;2023-04-22T01:02:26;22.30;33.10
80230;DHT22;69540;42.136;24.742;2023-04-22T01:04:52;22.30;33.10
80230;DHT22;69540;42.136;24.742;2023-04-22T01:07:21;22.20;33.10
80230;DHT22;69540;42.136;24.742;2023-04-22T01:09:47;22.20;33.10
80230;DHT22;69540;42.136;24.742;2023-04-22T01:12:13;22.20;33.10
80230;DHT22;69540;42.136;24.742;2023-04-22T01:14:39;22.20;33.10
80230;DHT22;69540;42.136;24.742;2023-04-22T01:17:05;22.20;33.00
80230;DHT22;69540;42.136;24.742;2023-04-22T01:19:31;22.20;33.10
80230;DHT22;69540;42.136;24.742;2023-04-22T01:21:58;22.20;33.10
80230;DHT22;69540;42.136;24.742;2023-04-22T01:24:26;22.20;33.10
80230;DHT22;69540;42.136;24.742;2023-04-22T01:26:54;22.30;33.20
80230;DHT22;69540;42.136;24.742;2023-04-22T01:29:21;22.20;33.10
80230;DHT22;69540;42.136;24.742;2023-04-22T01:31:46;22.20;33.10
80230;DHT22;69540;42.136;24.742;2023-04-22T01:34:12;22.20;33.10
80230;DHT22;69540;42.136;24.742;2023-04-22T01:36:38;22.20;33.10
80230;DHT22;69540;42.136;24.742;2023-04-22T01:39:03;22.20;33.10
80230;DHT22;69540;42.136;24.742;2023-04-22T01:41:30;22.20;33.10
80230;DHT22;69540;42.136;24.742;2023-04-22T01:43:57;22.20;33.10
80230;DHT22;69540;42.136;24.742;2023-04-22T01:46:25;22.20;34.20
80230;DHT22;69540;42.136;24.742;2023-04-22T01:48:50;22.20;33.10
80230;DHT22;69540;42.136;24.742;2023-04-22T01:51:17;22.20;33.10
80230;DHT22;69540;42.136;24.742;2023-04-22T01:53:46;22.20;33.10
80230;DHT22;69540;42.136;24.742;2023-04-22T01:56:11;22.20;33.10
80230;DHT22;69540;42.136;24.742;2023-04-22T01:58:38;22.20;33.10
80230;DHT22;69540;42.136;24.742;2023-04-22T02:01:04;22.20;33.10
80230;DHT22;69540;42.136;24.742;2023-04-22T02:03:30;22.20;33.10
80230;DHT22;69540;42.136;24.742;2023-04-22T02:05:56;22.20;33.10
80230;DHT22;69540;42.136;24.742;2023-04-22T02:08:22;22.20;33.10
80230;DHT22;69540;42.136;24.742;2023-04-22T02:10:47;22.20;33.10
80230;DHT22;69540;42.136;24.742;2023-04-22T02:13:13;22.20;33.20
80230;DHT22;69540;42.136;24.742;2023-04-22T02:15:39;22.20;33.10
80230;DHT22;69540;42.136;24.742;2023-04-22T02:18:06;22.20;33.10
80230;DHT22;69540;42.136;24.742;2023-04-22T02:20:32;22.20;33.10
80230;DHT22;69540;42.136;24.742;2023-04-22T02:22:57;22.20;33.10
80230;DHT22;69540;42.136;24.742;2023-04-22T02:25:23;22.20;33.10
80230;DHT22;69540;42.136;24.742;2023-04-22T02:27:49;22.20;33.10
80230;DHT22;69540;42.136;24.742;2023-04-22T02:30:14;22.20;33.10
80230;DHT22;69540;42.136;24.742;2023-04-22T02:32:40;22.20;33.10
80230;DHT22;69540;42.136;24.742;2023-04-22T02:35:06;22.20;33.10
80230;DHT22;69540;42.136;24.742;2023-04-22T02:37:32;22.20;33.10
80230;DHT22;69540;42.136;24.742;2023-04-22T02:39:57;22.20;33.10
80230;DHT22;69540;42.136;24.742;2023-04-22T02:42:23;22.20;33.10
80230;DHT22;69540;42.136;24.742;2023-04-22T02:44:51;22.20;33.10
80230;DHT22;69540;42.136;24.742;2023-04-22T02:47:17;22.20;33.10
80230;DHT22;69540;42.136;24.742;2023-04-22T02:49:43;22.20;33.10
80230;DHT22;69540;42.136;24.742;2023-04-22T02:52:08;22.20;33.10
80230;DHT22;69540;42.136;24.742;2023-04-22T02:54:34;22.20;33.10
80230;DHT22;69540;42.136;24.742;2023-04-22T02:56:59;22.10;33.10
80230;DHT22;69540;42.136;24.742;2023-04-22T02:59:27;22.20;33.10
80230;DHT22;69540;42.136;24.742;2023-04-22T03:01:53;22.20;33.20
80230;DHT22;69540;42.136;24.742;2023-04-22T03:04:19;22.20;33.10
80230;DHT22;69540;42.136;24.742;2023-04-22T03:06:47;22.20;33.10
80230;DHT22;69540;42.136;24.742;2023-04-22T03:09:13;22.20;33.20
80230;DHT22;69540;42.136;24.742;2023-04-22T03:11:38;22.10;33.10
80230;DHT22;69540;42.136;24.742;2023-04-22T03:14:04;22.10;33.10
80230;DHT22;69540;42.136;24.742;2023-04-22T03:16:30;22.10;33.10
80230;DHT22;69540;42.136;24.742;2023-04-22T03:18:55;22.10;33.10
80230;DHT22;69540;42.136;24.742;2023-04-22T03:21:21;22.10;33.10
80230;DHT22;69540;42.136;24.742;2023-04-22T03:23:47;22.20;33.10
80230;DHT22;69540;42.136;24.742;2023-04-22T03:26:12;22.10;33.10
80230;DHT22;69540;42.136;24.742;2023-04-22T03:28:38;22.20;33.20
80230;DHT22;69540;42.136;24.742;2023-04-22T03:31:04;22.10;33.10
80230;DHT22;69540;42.136;24.742;2023-04-22T03:33:30;22.20;33.20
80230;DHT22;69540;42.136;24.742;2023-04-22T03:35:55;22.20;33.20
80230;DHT22;69540;42.136;24.742;2023-04-22T03:38:21;22.10;33.10
80230;DHT22;69540;42.136;24.742;2023-04-22T03:40:49;22.10;33.10
80230;DHT22;69540;42.136;24.742;2023-04-22T03:43:15;22.10;33.10
80230;DHT22;69540;42.136;24.742;2023-04-22T03:45:41;22.10;33.10
80230;DHT22;69540;42.136;24.742;2023-04-22T03:48:07;22.10;33.20
80230;DHT22;69540;42.136;24.742;2023-04-22T03:50:32;22.10;33.10
80230;DHT22;69540;42.136;24.742;2023-04-22T03:52:58;22.10;33.10
80230;DHT22;69540;42.136;24.742;2023-04-22T03:55:24;22.10;33.10
80230;DHT22;69540;42.136;24.742;2023-04-22T03:57:49;22.10;33.10
80230;DHT22;69540;42.136;24.742;2023-04-22T04:00:15;22.10;33.10
80230;DHT22;69540;42.136;24.742;2023-04-22T04:02:41;22.10;33.10
80230;DHT22;69540;42.136;24.742;2023-04-22T04:05:07;22.20;33.10
80230;DHT22;69540;42.136;24.742;2023-04-22T04:07:36;22.10;33.10
80230;DHT22;69540;42.136;24.742;2023-04-22T04:10:02;22.10;33.10
80230;DHT22;69540;42.136;24.742;2023-04-22T04:12:28;22.10;33.10
80230;DHT22;69540;42.136;24.742;2023-04-22T04:14:54;22.10;34.20
80230;DHT22;69540;42.136;24.742;2023-04-22T04:17:22;22.10;33.10
80230;DHT22;69540;42.136;24.742;2023-04-22T04:19:51;22.10;33.10
80230;DHT22;69540;42.136;24.742;2023-04-22T04:22:16;22.10;33.10
80230;DHT22;69540;42.136;24.742;2023-04-22T04:24:43;22.10;33.10
80230;DHT22;69540;42.136;24.742;2023-04-22T04:27:08;22.10;33.20
80230;DHT22;69540;42.136;24.742;2023-04-22T04:29:36;22.10;33.10
80230;DHT22;69540;42.136;24.742;2023-04-22T04:32:02;22.10;33.10
80230;DHT22;69540;42.136;24.742;2023-04-22T04:34:29;22.10;33.20
80230;DHT22;69540;42.136;24.742;2023-04-22T04:36:54;22.10;33.10
80230;DHT22;69540;42.136;24.742;2023-04-22T04:39:21;22.10;33.20
80230;DHT22;69540;42.136;24.742;2023-04-22T04:41:47;22.10;33.10
80230;DHT22;69540;42.136;24.742;2023-04-22T04:44:15;22.10;33.10
80230;DHT22;69540;42.136;24.742;2023-04-22T04:46:41;22.10;33.10
80230;DHT22;69540;42.136;24.742;2023-04-22T04:49:07;22.10;33.10
80230;DHT22;69540;42.136;24.742;2023-04-22T04:51:37;22.10;33.10
80230;DHT22;69540;42.136;24.742;2023-04-22T04:54:03;22.10;33.10
80230;DHT22;69540;42.136;24.742;2023-04-22T04:56:29;22.10;33.10
80230;DHT22;69540;42.136;24.742;2023-04-22T04:58:55;22.10;33.20
80230;DHT22;69540;42.136;24.742;2023-04-22T05:01:21;22.10;33.10
80230;DHT22;69540;42.136;24.742;2023-04-22T05:03:46;22.10;33.10
80230;DHT22;69540;42.136;24.742;2023-04-22T05:06:12;22.10;33.10
80230;DHT22;69540;42.136;24.742;2023-04-22T05:08:40;22.10;33.10
80230;DHT22;69540;42.136;24.742;2023-04-22T05:11:06;22.10;33.10
80230;DHT22;69540;42.136;24.742;2023-04-22T05:13:31;22.10;33.20
80230;DHT22;69540;42.136;24.742;2023-04-22T05:15:57;22.10;33.10
80230;DHT22;69540;42.136;24.742;2023-04-22T05:18:24;22.10;33.10
80230;DHT22;69540;42.136;24.742;2023-04-22T05:20:52;22.10;33.10
80230;DHT22;69540;42.136;24.742;2023-04-22T05:23:17;22.10;33.10
80230;DHT22;69540;42.136;24.742;2023-04-22T05:25:43;22.10;33.20
80230;DHT22;69540;42.136;24.742;2023-04-22T05:28:09;22.10;33.10
80230;DHT22;69540;42.136;24.742;2023-04-22T05:30:35;22.10;33.10
80230;DHT22;69540;42.136;24.742;2023-04-22T05:33:00;22.10;33.10
80230;DHT22;69540;42.136;24.742;2023-04-22T05:35:26;22.10;33.10
80230;DHT22;69540;42.136;24.742;2023-04-22T05:37:52;22.10;33.10
80230;DHT22;69540;42.136;24.742;2023-04-22T05:40:18;22.10;33.10
80230;DHT22;69540;42.136;24.742;2023-04-22T05:42:43;22.10;33.10
80230;DHT22;69540;42.136;24.742;2023-04-22T05:45:09;22.10;33.10
80230;DHT22;69540;42.136;24.742;2023-04-22T05:47:38;22.10;33.10
80230;DHT22;69540;42.136;24.742;2023-04-22T05:50:04;22.10;33.00
80230;DHT22;69540;42.136;24.742;2023-04-22T05:52:30;22.10;33.10
80230;DHT22;69540;42.136;24.742;2023-04-22T05:54:55;22.10;33.00
80230;DHT22;69540;42.136;24.742;2023-04-22T05:57:21;22.10;33.00
80230;DHT22;69540;42.136;24.742;2023-04-22T05:59:47;22.10;33.10
80230;DHT22;69540;42.136;24.742;2023-04-22T06:02:12;22.10;33.00
80230;DHT22;69540;42.136;24.742;2023-04-22T06:04:39;22.10;33.10
80230;DHT22;69540;42.136;24.742;2023-04-22T06:07:05;22.10;33.10
80230;DHT22;69540;42.136;24.742;2023-04-22T06:09:33;22.10;33.00
80230;DHT22;69540;42.136;24.742;2023-04-22T06:11:58;22.10;33.00
80230;DHT22;69540;42.136;24.742;2023-04-22T06:14:24;22.10;33.00
80230;DHT22;69540;42.136;24.742;2023-04-22T06:16:50;22.10;33.00
80230;DHT22;69540;42.136;24.742;2023-04-22T06:19:17;22.10;33.00
80230;DHT22;69540;42.136;24.742;2023-04-22T06:21:43;22.10;33.00
80230;DHT22;69540;42.136;24.742;2023-04-22T06:24:08;22.10;33.00
80230;DHT22;69540;42.136;24.742;2023-04-22T06:26:36;22.10;33.00
80230;DHT22;69540;42.136;24.742;2023-04-22T06:29:04;22.20;33.00
80230;DHT22;69540;42.136;24.742;2023-04-22T06:31:33;22.20;32.90
80230;DHT22;69540;42.136;24.742;2023-04-22T06:33:59;22.20;33.00
80230;DHT22;69540;42.136;24.742;2023-04-22T06:36:25;22.10;32.90
80230;DHT22;69540;42.136;24.742;2023-04-22T06:38:52;22.20;32.90
80230;DHT22;69540;42.136;24.742;2023-04-22T06:41:17;22.20;34.10
80230;DHT22;69540;42.136;24.742;2023-04-22T06:43:43;22.20;32.90
80230;DHT22;69540;42.136;24.742;2023-04-22T06:46:09;22.10;32.90
80230;DHT22;69540;42.136;24.742;2023-04-22T06:48:35;22.10;32.90
80230;DHT22;69540;42.136;24.742;2023-04-22T06:51:00;22.20;32.90
80230;DHT22;69540;42.136;24.742;2023-04-22T06:53:27;22.10;32.90
80230;DHT22;69540;42.136;24.742;2023-04-22T06:55:52;22.20;32.90
80230;DHT22;69540;42.136;24.742;2023-04-22T06:58:19;22.20;33.00
80230;DHT22;69540;42.136;24.742;2023-04-22T07:00:48;22.20;32.90
80230;DHT22;69540;42.136;24.742;2023-04-22T07:03:13;22.20;32.90
80230;DHT22;69540;42.136;24.742;2023-04-22T07:05:39;22.20;32.90
80230;DHT22;69540;42.136;24.742;2023-04-22T07:08:05;22.10;32.90
80230;DHT22;69540;42.136;24.742;2023-04-22T07:10:30;22.20;32.90
80230;DHT22;69540;42.136;24.742;2023-04-22T07:12:56;22.20;32.90
80230;DHT22;69540;42.136;24.742;2023-04-22T07:15:21;22.10;32.80
80230;DHT22;69540;42.136;24.742;2023-04-22T07:17:47;22.10;32.80
80230;DHT22;69540;42.136;24.742;2023-04-22T07:20:13;22.10;32.80
80230;DHT22;69540;42.136;24.742;2023-04-22T07:22:38;22.20;32.90
80230;DHT22;69540;42.136;24.742;2023-04-22T07:25:04;22.20;32.80
80230;DHT22;69540;42.136;24.742;2023-04-22T07:27:32;22.20;32.80
80230;DHT22;69540;42.136;24.742;2023-04-22T07:29:58;22.20;32.90
80230;DHT22;69540;42.136;24.742;2023-04-22T07:32:24;22.20;32.80
80230;DHT22;69540;42.136;24.742;2023-04-22T07:34:52;22.20;32.80
80230;DHT22;69540;42.136;24.742;2023-04-22T07:37:18;22.20;32.80
80230;DHT22;69540;42.136;24.742;2023-04-22T07:39:44;22.20;32.90
80230;DHT22;69540;42.136;24.742;2023-04-22T07:42:10;22.20;32.80
80230;DHT22;69540;42.136;24.742;2023-04-22T07:44:37;22.20;32.80
80230;DHT22;69540;42.136;24.742;2023-04-22T07:47:02;22.20;32.80
80230;DHT22;69540;42.136;24.742;2023-04-22T07:49:28;22.20;32.80
80230;DHT22;69540;42.136;24.742;2023-04-22T07:51:55;22.20;32.80
80230;DHT22;69540;42.136;24.742;2023-04-22T07:54:20;22.20;32.70
80230;DHT22;69540;42.136;24.742;2023-04-22T07:56:46;22.20;32.70
80230;DHT22;69540;42.136;24.742;2023-04-22T07:59:12;22.20;32.70
80230;DHT22;69540;42.136;24.742;2023-04-22T08:01:37;22.20;32.70
80230;DHT22;69540;42.136;24.742;2023-04-22T08:04:03;22.20;32.70
80230;DHT22;69540;42.136;24.742;2023-04-22T08:06:29;22.20;32.70
80230;DHT22;69540;42.136;24.742;2023-04-22T08:08:55;22.20;32.80
80230;DHT22;69540;42.136;24.742;2023-04-22T08:11:20;22.20;32.70
80230;DHT22;69540;42.136;24.742;2023-04-22T08:13:46;22.20;32.70
80230;DHT22;69540;42.136;24.742;2023-04-22T08:16:12;22.20;32.70
80230;DHT22;69540;42.136;24.742;2023-04-22T08:18:37;22.20;32.70
80230;DHT22;69540;42.136;24.742;2023-04-22T08:21:03;22.20;32.60
80230;DHT22;69540;42.136;24.742;2023-04-22T08:23:29;22.20;32.70
80230;DHT22;69540;42.136;24.742;2023-04-22T08:25:54;22.30;32.70
80230;DHT22;69540;42.136;24.742;2023-04-22T08:28:20;22.20;32.60
80230;DHT22;69540;42.136;24.742;2023-04-22T08:30:46;22.20;32.60
80230;DHT22;69540;42.136;24.742;2023-04-22T08:33:12;22.20;32.60
80230;DHT22;69540;42.136;24.742;2023-04-22T08:35:37;22.30;32.60
80230;DHT22;69540;42.136;24.742;2023-04-22T08:38:03;22.20;32.60
80230;DHT22;69540;42.136;24.742;2023-04-22T08:40:29;22.20;32.60
80230;DHT22;69540;42.136;24.742;2023-04-22T08:42:55;22.20;32.60
80230;DHT22;69540;42.136;24.742;2023-04-22T08:45:21;22.20;32.50
80230;DHT22;69540;42.136;24.742;2023-04-22T08:47:48;22.20;33.60
80230;DHT22;69540;42.136;24.742;2023-04-22T08:50:14;22.30;32.60
80230;DHT22;69540;42.136;24.742;2023-04-22T08:52:43;22.30;32.60
80230;DHT22;69540;42.136;24.742;2023-04-22T08:55:09;22.30;32.50
80230;DHT22;69540;42.136;24.742;2023-04-22T08:57:38;22.30;32.50
80230;DHT22;69540;42.136;24.742;2023-04-22T09:00:05;22.30;32.60
80230;DHT22;69540;42.136;24.742;2023-04-22T09:02:33;22.30;32.50
80230;DHT22;69540;42.136;24.742;2023-04-22T09:05:01;22.30;32.50
80230;DHT22;69540;42.136;24.742;2023-04-22T09:07:29;22.30;32.50
80230;DHT22;69540;42.136;24.742;2023-04-22T09:09:56;22.30;32.50
80230;DHT22;69540;42.136;24.742;2023-04-22T09:12:22;22.30;32.50
80230;DHT22;69540;42.136;24.742;2023-04-22T09:14:48;22.30;32.50
80230;DHT22;69540;42.136;24.742;2023-04-22T09:17:17;22.30;32.50
80230;DHT22;69540;42.136;24.742;2023-04-22T09:19:59;22.30;32.50
80230;DHT22;69540;42.136;24.742;2023-04-22T09:22:27;22.30;32.40
80230;DHT22;69540;42.136;24.742;2023-04-22T09:24:53;22.30;32.40
80230;DHT22;69540;42.136;24.742;2023-04-22T09:27:23;22.30;32.40
80230;DHT22;69540;42.136;24.742;2023-04-22T09:29:50;22.30;32.40
80230;DHT22;69540;42.136;24.742;2023-04-22T09:32:17;22.30;32.40
80230;DHT22;69540;42.136;24.742;2023-04-22T09:34:53;22.30;32.40
80230;DHT22;69540;42.136;24.742;2023-04-22T09:37:23;22.30;32.40
80230;DHT22;69540;42.136;24.742;2023-04-22T09:39:49;22.30;32.40
80230;DHT22;69540;42.136;24.742;2023-04-22T09:42:19;22.30;32.40
80230;DHT22;69540;42.136;24.742;2023-04-22T09:44:49;22.30;32.30
80230;DHT22;69540;42.136;24.742;2023-04-22T09:47:17;22.30;32.30
80230;DHT22;69540;42.136;24.742;2023-04-22T09:49:46;22.30;32.30
80230;DHT22;69540;42.136;24.742;2023-04-22T09:52:23;22.30;32.30
80230;DHT22;69540;42.136;24.742;2023-04-22T09:54:50;22.40;32.20
80230;DHT22;69540;42.136;24.742;2023-04-22T09:57:19;22.40;32.20
80230;DHT22;69540;42.136;24.742;2023-04-22T09:59:45;22.30;32.20
80230;DHT22;69540;42.136;24.742;2023-04-22T10:02:12;22.40;32.20
80230;DHT22;69540;42.136;24.742;2023-04-22T10:04:38;22.40;32.20
80230;DHT22;69540;42.136;24.742;2023-04-22T10:07:04;22.40;32.20
80230;DHT22;69540;42.136;24.742;2023-04-22T10:09:30;22.40;32.10
80230;DHT22;69540;42.136;24.742;2023-04-22T10:11:57;22.40;32.20
80230;DHT22;69540;42.136;24.742;2023-04-22T10:14:26;22.40;32.10
80230;DHT22;69540;42.136;24.742;2023-04-22T10:17:01;22.40;32.10
80230;DHT22;69540;42.136;24.742;2023-04-22T10:19:28;22.40;32.10
80230;DHT22;69540;42.136;24.742;2023-04-22T10:21:59;22.40;32.10
80230;DHT22;69540;42.136;24.742;2023-04-22T10:24:27;22.40;32.10
80230;DHT22;69540;42.136;24.742;2023-04-22T10:26:55;22.40;32.20
80230;DHT22;69540;42.136;24.742;2023-04-22T10:29:23;22.40;32.10
80230;DHT22;69540;42.136;24.742;2023-04-22T10:31:56;22.40;32.10
80230;DHT22;69540;42.136;24.742;2023-04-22T10:34:29;22.40;32.20
80230;DHT22;69540;42.136;24.742;2023-04-22T10:36:58;22.40;32.10
80230;DHT22;69540;42.136;24.742;2023-04-22T10:39:25;22.40;32.20
80230;DHT22;69540;42.136;24.742;2023-04-22T10:42:13;22.40;32.10
80230;DHT22;69540;42.136;24.742;2023-04-22T10:44:51;22.40;32.10
80230;DHT22;69540;42.136;24.742;2023-04-22T10:47:31;22.40;32.10
80230;DHT22;69540;42.136;24.742;2023-04-22T10:50:22;22.40;32.10
80230;DHT22;69540;42.136;24.742;2023-04-22T10:52:54;22.50;32.20
80230;DHT22;69540;42.136;24.742;2023-04-22T10:55:21;22.40;32.10
80230;DHT22;69540;42.136;24.742;2023-04-22T10:57:48;22.50;32.20
80230;DHT22;69540;42.136;24.742;2023-04-22T11:00:29;22.40;32.10
80230;DHT22;69540;42.136;24.742;2023-04-22T11:05:31;22.50;32.10
80230;DHT22;69540;42.136;24.742;2023-04-22T11:08:12;22.50;32.20
80230;DHT22;69540;42.136;24.742;2023-04-22T11:10:43;22.50;32.20
80230;DHT22;69540;42.136;24.742;2023-04-22T11:13:14;22.50;32.10
80230;DHT22;69540;42.136;24.742;2023-04-22T11:15:43;22.50;32.20
80230;DHT22;69540;42.136;24.742;2023-04-22T11:18:16;22.50;32.10
80230;DHT22;69540;42.136;24.742;2023-04-22T11:20:42;22.50;32.10
80230;DHT22;69540;42.136;24.742;2023-04-22T11:23:08;22.50;32.10
80230;DHT22;69540;42.136;24.742;2023-04-22T11:25:34;22.50;32.10
80230;DHT22;69540;42.136;24.742;2023-04-22T11:28:00;22.50;32.10
80230;DHT22;69540;42.136;24.742;2023-04-22T11:30:27;22.50;32.10
80230;DHT22;69540;42.136;24.742;2023-04-22T11:32:58;22.50;32.10
80230;DHT22;69540;42.136;24.742;2023-04-22T11:35:30;22.50;32.10
80230;DHT22;69540;42.136;24.742;2023-04-22T11:37:58;22.50;32.10
80230;DHT22;69540;42.136;24.742;2023-04-22T11:40:29;22.50;32.10
80230;DHT22;69540;42.136;24.742;2023-04-22T11:42:56;22.50;32.10
80230;DHT22;69540;42.136;24.742;2023-04-22T11:45:23;22.50;32.10
80230;DHT22;69540;42.136;24.742;2023-04-22T11:47:50;22.50;32.10
80230;DHT22;69540;42.136;24.742;2023-04-22T11:50:17;22.50;32.10
80230;DHT22;69540;42.136;24.742;2023-04-22T11:52:59;22.50;32.20
80230;DHT22;69540;42.136;24.742;2023-04-22T11:55:38;22.50;32.10
80230;DHT22;69540;42.136;24.742;2023-04-22T11:58:12;22.50;32.10
80230;DHT22;69540;42.136;24.742;2023-04-22T12:05:57;22.50;32.10
80230;DHT22;69540;42.136;24.742;2023-04-22T12:08:25;22.50;32.20
80230;DHT22;69540;42.136;24.742;2023-04-22T12:10:59;22.40;32.10
80230;DHT22;69540;42.136;24.742;2023-04-22T12:13:28;22.50;32.20
80230;DHT22;69540;42.136;24.742;2023-04-22T12:16:05;22.40;32.10
80230;DHT22;69540;42.136;24.742;2023-04-22T12:18:36;22.50;32.10
80230;DHT22;69540;42.136;24.742;2023-04-22T12:21:13;22.40;32.10
80230;DHT22;69540;42.136;24.742;2023-04-22T12:23:42;22.50;32.20
80230;DHT22;69540;42.136;24.742;2023-04-22T12:26:08;22.40;32.10
80230;DHT22;69540;42.136;24.742;2023-04-22T12:28:36;22.40;32.10
80230;DHT22;69540;42.136;24.742;2023-04-22T12:31:02;22.40;32.10
80230;DHT22;69540;42.136;24.742;2023-04-22T12:33:28;22.40;32.10
80230;DHT22;69540;42.136;24.742;2023-04-22T12:35:56;22.40;32.10
80230;DHT22;69540;42.136;24.742;2023-04-22T12:38:22;22.40;32.10
80230;DHT22;69540;42.136;24.742;2023-04-22T12:40:47;22.40;32.20
80230;DHT22;69540;42.136;24.742;2023-04-22T12:43:13;22.40;32.10
80230;DHT22;69540;42.136;24.742;2023-04-22T12:45:39;22.40;32.10
80230;DHT22;69540;42.136;24.742;2023-04-22T12:48:05;22.40;32.10
80230;DHT22;69540;42.136;24.742;2023-04-22T12:50:30;22.40;32.10
80230;DHT22;69540;42.136;24.742;2023-04-22T12:52:56;22.30;32.10
80230;DHT22;69540;42.136;24.742;2023-04-22T12:55:22;22.30;32.10
80230;DHT22;69540;42.136;24.742;2023-04-22T12:57:48;22.30;32.10
80230;DHT22;69540;42.136;24.742;2023-04-22T13:00:17;22.40;32.10
80230;DHT22;69540;42.136;24.742;2023-04-22T13:02:44;22.30;32.10
80230;DHT22;69540;42.136;24.742;2023-04-22T13:05:11;22.30;32.10
80230;DHT22;69540;42.136;24.742;2023-04-22T13:07:38;22.30;32.10
80230;DHT22;69540;42.136;24.742;2023-04-22T13:10:06;22.30;32.10
80230;DHT22;69540;42.136;24.742;2023-04-22T13:12:32;22.30;32.10
80230;DHT22;69540;42.136;24.742;2023-04-22T13:14:57;22.30;32.10
80230;DHT22;69540;42.136;24.742;2023-04-22T13:17:23;22.30;32.10
80230;DHT22;69540;42.136;24.742;2023-04-22T13:19:49;22.30;32.10
80230;DHT22;69540;42.136;24.742;2023-04-22T13:22:16;22.30;32.10
80230;DHT22;69540;42.136;24.742;2023-04-22T13:24:42;22.30;32.10
80230;DHT22;69540;42.136;24.742;2023-04-22T13:27:08;22.30;32.10
80230;DHT22;69540;42.136;24.742;2023-04-22T13:29:34;22.30;32.10
80230;DHT22;69540;42.136;24.742;2023-04-22T13:32:00;22.30;32.10
80230;DHT22;69540;42.136;24.742;2023-04-22T13:34:27;22.30;32.10
80230;DHT22;69540;42.136;24.742;2023-04-22T13:36:53;22.30;32.10
80230;DHT22;69540;42.136;24.742;2023-04-22T13:39:20;22.30;32.10
80230;DHT22;69540;42.136;24.742;2023-04-22T13:41:45;22.40;32.20
80230;DHT22;69540;42.136;24.742;2023-04-22T13:44:11;22.40;32.20
80230;DHT22;69540;42.136;24.742;2023-04-22T13:46:37;22.40;32.10
80230;DHT22;69540;42.136;24.742;2023-04-22T13:49:04;22.40;32.10
80230;DHT22;69540;42.136;24.742;2023-04-22T13:51:30;22.40;32.10
80230;DHT22;69540;42.136;24.742;2023-04-22T13:53:59;22.40;32.10
80230;DHT22;69540;42.136;24.742;2023-04-22T13:56:25;22.40;32.10
80230;DHT22;69540;42.136;24.742;2023-04-22T13:58:52;22.40;32.10
80230;DHT22;69540;42.136;24.742;2023-04-22T14:01:18;22.40;32.10
80230;DHT22;69540;42.136;24.742;2023-04-22T14:03:44;22.40;32.10
80230;DHT22;69540;42.136;24.742;2023-04-22T14:06:10;22.50;32.20
80230;DHT22;69540;42.136;24.742;2023-04-22T14:08:37;22.50;32.20
80230;DHT22;69540;42.136;24.742;2023-04-22T14:11:06;22.50;32.10
80230;DHT22;69540;42.136;24.742;2023-04-22T14:13:32;22.60;32.10
80230;DHT22;69540;42.136;24.742;2023-04-22T14:15:58;22.60;32.00
80230;DHT22;69540;42.136;24.742;2023-04-22T14:18:25;22.60;32.00
80230;DHT22;69540;42.136;24.742;2023-04-22T14:20:51;22.60;32.00
80230;DHT22;69540;42.136;24.742;2023-04-22T14:23:20;22.60;31.80
80230;DHT22;69540;42.136;24.742;2023-04-22T14:25:47;22.70;31.90
80230;DHT22;69540;42.136;24.742;2023-04-22T14:28:14;22.70;31.90
80230;DHT22;69540;42.136;24.742;2023-04-22T14:30:41;22.70;31.80
80230;DHT22;69540;42.136;24.742;2023-04-22T14:33:07;22.70;31.90
80230;DHT22;69540;42.136;24.742;2023-04-22T14:35:34;22.60;31.80
80230;DHT22;69540;42.136;24.742;2023-04-22T14:38:01;22.70;31.80
80230;DHT22;69540;42.136;24.742;2023-04-22T14:40:27;22.70;31.80
80230;DHT22;69540;42.136;24.742;2023-04-22T14:42:56;22.70;31.70
80230;DHT22;69540;42.136;24.742;2023-04-22T14:45:22;22.70;31.70
80230;DHT22;69540;42.136;24.742;2023-04-22T14:47:49;22.70;31.70
80230;DHT22;69540;42.136;24.742;2023-04-22T14:50:15;22.80;31.80
80230;DHT22;69540;42.136;24.742;2023-04-22T14:52:41;22.80;31.70
80230;DHT22;69540;42.136;24.742;2023-04-22T14:55:07;22.80;31.70
80230;DHT22;69540;42.136;24.742;2023-04-22T14:57:32;22.80;31.60
80230;DHT22;69540;42.136;24.742;2023-04-22T14:59:58;22.80;31.60
80230;DHT22;69540;42.136;24.742;2023-04-22T15:02:24;22.80;31.60
80230;DHT22;69540;42.136;24.742;2023-04-22T15:04:50;22.80;31.60
80230;DHT22;69540;42.136;24.742;2023-04-22T15:07:16;22.80;31.60
80230;DHT22;69540;42.136;24.742;2023-04-22T15:09:42;22.80;31.60
80230;DHT22;69540;42.136;24.742;2023-04-22T15:12:07;22.80;31.50
80230;DHT22;69540;42.136;24.742;2023-04-22T15:14:34;22.80;31.60
80230;DHT22;69540;42.136;24.742;2023-04-22T15:17:01;22.80;31.60
80230;DHT22;69540;42.136;24.742;2023-04-22T15:19:26;22.80;31.40
80230;DHT22;69540;42.136;24.742;2023-04-22T15:21:52;22.90;31.40